Time;durP1;ratioP1;P1;durP2;ratioP2;P2;SDS_P1;SDS_P2;PMS_P1;PMS_P2;Temp;Humidity;BMP_temperature;BMP_pressure;BME280_temperature;BME280_humidity;BME280_pressure;Samples;Min_cycle;Max_cycle;Signal;HPM_P1;HPM_P2
2023/07/27 00:01:37;;;;;;;5.37;3.00;;;12.80;36.70;;;;;;4981155;28;20470;-63
2023/07/27 00:04:04;;;;;;;6.73;3.67;;;12.80;36.60;;;;;;4985368;28;20480;-63
2023/07/27 00:06:32;;;;;;;6.13;2.80;;;12.80;36.80;;;;;;4984487;28;20458;-63
2023/07/27 00:08:58;;;;;;;7.17;3.00;;;12.80;36.70;;;;;;4987710;28;20985;-63
2023/07/27 00:11:25;;;;;;;8.33;3.47;;;12.80;36.80;;;;;;4976556;28;20473;-63
2023/07/27 00:13:52;;;;;;;5.63;3.43;;;12.70;36.80;;;;;;4989069;28;20572;-63
2023/07/27 00:16:19;;;;;;;6.30;3.10;;;12.80;36.80;;;;;;4983525;28;20473;-63
2023/07/27 00:18:45;;;;;;;6.50;3.97;;;12.70;36.80;;;;;;4986776;28;20461;-63
2023/07/27 00:21:12;;;;;;;5.77;3.30;;;12.70;36.80;;;;;;4983930;28;20566;-63
2023/07/27 00:23:40;;;;;;;6.83;2.97;;;12.70;36.80;;;;;;4984664;28;20492;-63
2023/07/27 00:26:07;;;;;;;7.50;2.97;;;12.70;36.70;;;;;;4985093;28;20472;-63
2023/07/27 00:28:33;;;;;;;5.90;3.00;;;12.70;36.70;;;;;;4990985;28;20464;-63
2023/07/27 00:31:00;;;;;;;5.60;2.83;;;12.70;36.70;;;;;;4982731;28;20472;-63
2023/07/27 00:33:27;;;;;;;6.47;3.70;;;12.70;36.90;;;;;;4980897;28;21381;-63
2023/07/27 00:35:57;;;;;;;6.50;3.07;;;12.60;36.70;;;;;;4982418;28;20497;-63
2023/07/27 00:38:23;;;;;;;6.47;3.63;;;12.60;36.80;;;;;;4984009;28;21038;-63
2023/07/27 00:40:51;;;;;;;5.60;3.43;;;12.60;36.80;;;;;;4980020;28;20465;-63
2023/07/27 00:43:18;;;;;;;4.80;2.87;;;12.60;36.80;;;;;;4981955;28;20457;-63
2023/07/27 00:45:46;;;;;;;5.40;3.53;;;12.60;36.80;;;;;;4980333;28;20458;-63
2023/07/27 00:48:13;;;;;;;6.17;3.20;;;12.60;36.80;;;;;;4982947;28;20958;-63
2023/07/27 00:50:40;;;;;;;5.30;3.20;;;12.60;36.80;;;;;;4980530;28;20458;-63
2023/07/27 00:53:09;;;;;;;5.93;3.13;;;12.60;36.90;;;;;;4979916;28;20491;-63
2023/07/27 00:55:36;;;;;;;5.73;3.53;;;12.50;37.00;;;;;;4983406;28;20489;-63
2023/07/27 00:58:05;;;;;;;7.30;4.03;;;12.50;37.10;;;;;;4981367;28;21081;-63
2023/07/27 01:00:32;;;;;;;6.70;3.37;;;12.60;37.10;;;;;;4983794;28;20469;-63
2023/07/27 01:03:00;;;;;;;7.20;3.50;;;12.50;37.20;;;;;;4983844;28;20468;-63
2023/07/27 01:05:27;;;;;;;7.03;3.50;;;12.60;37.10;;;;;;4983939;28;20479;-63
2023/07/27 01:07:54;;;;;;;7.23;3.53;;;12.60;37.20;;;;;;4983216;28;20461;-63
2023/07/27 01:10:26;;;;;;;6.53;2.90;;;12.60;37.30;;;;;;4985029;28;20512;-63
2023/07/27 01:12:59;;;;;;;6.17;3.37;;;12.60;37.30;;;;;;4985876;28;20472;-63
2023/07/27 01:15:31;;;;;;;6.10;3.50;;;12.60;37.30;;;;;;4983175;28;21326;-63
2023/07/27 01:18:01;;;;;;;6.33;3.80;;;12.60;37.40;;;;;;4985277;28;20467;-63
2023/07/27 01:20:36;;;;;;;6.87;3.07;;;12.70;37.40;;;;;;4977354;28;20970;-63
2023/07/27 01:23:42;;;;;;;12.90;4.17;;;12.70;37.50;;;;;;4980902;28;20981;-63
2023/07/27 01:26:46;;;;;;;6.27;3.10;;;12.80;37.50;;;;;;4986935;28;20978;-63
2023/07/27 01:29:41;;;;;;;5.60;3.17;;;12.80;37.40;;;;;;4986404;28;20468;-63
2023/07/27 01:32:11;;;;;;;4.93;2.80;;;12.90;37.20;;;;;;4979165;28;20473;-63
2023/07/27 01:34:44;;;;;;;6.67;3.83;;;12.90;37.60;;;;;;4981047;28;20519;-63
2023/07/27 01:37:16;;;;;;;5.70;3.43;;;12.90;37.00;;;;;;4982839;28;20464;-63
2023/07/27 01:39:48;;;;;;;6.60;3.30;;;12.90;37.00;;;;;;4982606;28;20471;-63
2023/07/27 01:42:16;;;;;;;6.10;3.43;;;13.00;36.70;;;;;;4975493;28;20461;-63
2023/07/27 01:44:43;;;;;;;7.47;3.70;;;13.00;36.60;;;;;;4978926;28;20483;-63
2023/07/27 01:47:12;;;;;;;5.77;3.40;;;13.10;36.40;;;;;;4979884;28;20954;-63
2023/07/27 01:49:40;;;;;;;6.47;3.40;;;13.10;36.10;;;;;;4980159;28;20468;-63
2023/07/27 01:52:08;;;;;;;6.40;3.10;;;13.10;36.10;;;;;;4977308;28;20897;-63
2023/07/27 01:54:36;;;;;;;6.27;3.23;;;13.20;36.00;;;;;;4980332;28;21084;-63
2023/07/27 01:57:05;;;;;;;6.43;2.93;;;13.20;35.80;;;;;;4983462;28;20465;-62
2023/07/27 01:59:32;;;;;;;7.47;3.00;;;13.20;35.80;;;;;;4983735;28;20828;-63
2023/07/27 02:01:59;;;;;;;6.77;3.40;;;13.10;36.00;;;;;;4983094;28;20470;-63
2023/07/27 02:04:27;;;;;;;7.30;4.00;;;13.10;35.90;;;;;;4979843;28;20501;-63
2023/07/27 02:06:54;;;;;;;5.70;3.10;;;13.20;35.40;;;;;;4976911;28;20475;-63
2023/07/27 02:09:21;;;;;;;5.17;3.00;;;13.20;35.00;;;;;;4981816;28;20468;-62
2023/07/27 02:11:54;;;;;;;5.30;3.27;;;13.20;35.20;;;;;;4975322;28;20564;-62
2023/07/27 02:14:31;;;;;;;5.50;2.90;;;13.10;35.40;;;;;;4982225;28;20488;-62
2023/07/27 02:17:02;;;;;;;5.70;3.33;;;13.00;35.40;;;;;;4978830;28;20460;-63
2023/07/27 02:19:33;;;;;;;6.30;3.60;;;13.00;35.40;;;;;;4978578;28;20805;-63
2023/07/27 02:22:01;;;;;;;6.50;3.30;;;13.00;35.20;;;;;;4979425;28;20461;-63
2023/07/27 02:24:29;;;;;;;7.17;3.40;;;12.90;35.50;;;;;;4980099;28;21029;-63
2023/07/27 02:26:57;;;;;;;6.70;4.07;;;12.80;35.70;;;;;;4983684;28;20476;-63
2023/07/27 02:29:23;;;;;;;5.90;3.37;;;12.70;36.00;;;;;;4983310;28;20469;-63
2023/07/27 02:31:50;;;;;;;5.70;3.00;;;12.70;36.00;;;;;;4980461;28;20472;-63
2023/07/27 02:34:17;;;;;;;8.23;3.70;;;12.60;35.90;;;;;;4978920;28;20507;-63
2023/07/27 02:36:45;;;;;;;7.33;3.50;;;12.60;36.20;;;;;;4983623;28;20483;-63
2023/07/27 02:39:12;;;;;;;5.67;3.37;;;12.60;36.30;;;;;;4979147;28;20465;-63
2023/07/27 02:41:38;;;;;;;5.67;2.97;;;12.50;36.30;;;;;;4976952;28;20468;-63
2023/07/27 02:44:05;;;;;;;6.37;3.17;;;12.50;36.40;;;;;;4978791;28;20493;-63
2023/07/27 02:46:32;;;;;;;9.23;4.37;;;12.60;36.30;;;;;;4980617;28;20981;-63
2023/07/27 02:48:58;;;;;;;7.47;4.03;;;12.50;36.30;;;;;;4976357;28;20456;-63
2023/07/27 02:51:25;;;;;;;8.20;3.63;;;12.50;36.40;;;;;;4974884;28;20476;-63
2023/07/27 02:53:53;;;;;;;5.70;3.17;;;12.50;36.40;;;;;;4976728;28;20481;-63
2023/07/27 02:56:20;;;;;;;7.20;3.30;;;12.40;36.50;;;;;;4977994;28;20486;-62
2023/07/27 02:58:46;;;;;;;10.33;3.57;;;12.40;36.60;;;;;;4980782;28;20498;-63
2023/07/27 03:01:13;;;;;;;6.97;3.80;;;12.40;36.70;;;;;;4982367;28;20477;-63
2023/07/27 03:03:40;;;;;;;6.87;4.00;;;12.30;36.80;;;;;;4978762;28;20484;-62
2023/07/27 03:06:06;;;;;;;7.60;4.03;;;12.30;37.00;;;;;;4984467;28;20489;-63
2023/07/27 03:08:33;;;;;;;7.07;3.83;;;12.30;37.20;;;;;;4983369;28;20465;-63
2023/07/27 03:11:05;;;;;;;6.20;3.80;;;12.30;37.10;;;;;;4982665;28;20469;-63
2023/07/27 03:13:32;;;;;;;7.40;4.23;;;12.20;37.20;;;;;;4985179;28;20477;-65
2023/07/27 03:16:02;;;;;;;10.27;3.80;;;12.20;37.20;;;;;;4982983;28;20488;-65
2023/07/27 03:18:29;;;;;;;7.23;3.43;;;12.20;37.20;;;;;;4984614;28;20466;-63
2023/07/27 03:20:55;;;;;;;6.30;4.00;;;12.20;37.20;;;;;;4984557;28;20461;-62
2023/07/27 03:23:22;;;;;;;7.20;4.67;;;12.20;37.00;;;;;;4983349;28;20468;-62
2023/07/27 03:25:49;;;;;;;6.00;3.73;;;12.20;37.10;;;;;;4981917;28;20469;-62
2023/07/27 03:28:17;;;;;;;5.87;3.20;;;12.10;37.00;;;;;;4983005;28;20471;-63
2023/07/27 03:30:44;;;;;;;14.60;3.87;;;12.10;37.00;;;;;;4980487;28;20488;-65
2023/07/27 03:33:11;;;;;;;8.63;3.10;;;12.10;37.00;;;;;;4985880;28;20463;-66
2023/07/27 03:35:37;;;;;;;5.87;3.27;;;12.10;37.10;;;;;;4989942;28;20481;-66
2023/07/27 03:38:04;;;;;;;7.37;3.73;;;12.00;37.20;;;;;;4993354;28;20472;-66
2023/07/27 03:40:31;;;;;;;6.57;3.17;;;12.00;37.30;;;;;;5009102;22;20488;-69
2023/07/27 03:42:58;;;;;;;7.40;3.60;;;12.10;37.30;;;;;;4996774;28;20472;-68
2023/07/27 03:45:26;;;;;;;7.87;3.40;;;12.10;37.40;;;;;;4989264;28;20499;-68
2023/07/27 03:47:52;;;;;;;8.70;4.63;;;12.10;37.30;;;;;;4983674;28;20479;-67
2023/07/27 03:50:19;;;;;;;6.20;3.53;;;12.10;37.30;;;;;;4984209;28;21021;-66
2023/07/27 03:52:46;;;;;;;7.00;3.53;;;12.10;37.20;;;;;;4988247;28;20472;-67
2023/07/27 03:55:13;;;;;;;6.20;3.23;;;12.20;37.10;;;;;;4984515;28;20488;-67
2023/07/27 03:57:39;;;;;;;7.43;2.80;;;12.20;37.10;;;;;;4985628;28;20471;-67
2023/07/27 04:00:07;;;;;;;7.00;3.40;;;12.30;37.20;;;;;;4998149;28;20468;-66
2023/07/27 04:02:35;;;;;;;6.70;3.10;;;12.20;37.20;;;;;;4985764;28;20484;-66
2023/07/27 04:05:02;;;;;;;5.53;3.03;;;12.30;37.10;;;;;;4994823;28;20485;-66
2023/07/27 04:07:29;;;;;;;7.63;3.27;;;12.30;37.00;;;;;;4994684;28;20460;-67
2023/07/27 04:09:55;;;;;;;9.13;3.50;;;12.40;37.00;;;;;;5000041;28;20475;-66
2023/07/27 04:12:22;;;;;;;7.30;3.40;;;12.40;37.00;;;;;;4990686;28;20828;-67
2023/07/27 04:14:50;;;;;;;7.53;4.30;;;12.40;36.90;;;;;;4995478;28;20488;-67
2023/07/27 04:17:16;;;;;;;6.40;3.53;;;12.40;36.90;;;;;;4994101;28;20982;-67
2023/07/27 04:19:44;;;;;;;7.30;3.47;;;12.50;36.90;;;;;;4989977;28;20480;-67
2023/07/27 04:22:11;;;;;;;5.53;2.90;;;12.50;36.70;;;;;;4988886;28;20471;-67
2023/07/27 04:24:40;;;;;;;6.97;3.97;;;12.50;36.80;;;;;;4986029;28;20481;-67
2023/07/27 04:27:07;;;;;;;6.47;3.50;;;12.60;36.90;;;;;;4988362;28;20817;-68
2023/07/27 04:29:34;;;;;;;8.00;3.50;;;12.60;36.80;;;;;;4993128;28;20465;-67
2023/07/27 04:32:00;;;;;;;6.67;3.23;;;12.60;36.90;;;;;;5003163;28;20472;-67
2023/07/27 04:34:27;;;;;;;6.27;3.50;;;12.70;36.90;;;;;;5010382;28;20851;-67
2023/07/27 04:36:55;;;;;;;6.37;3.20;;;12.70;36.70;;;;;;5030654;28;20480;-67
2023/07/27 04:39:22;;;;;;;8.13;3.63;;;12.80;36.70;;;;;;5031717;28;20455;-67
2023/07/27 04:41:48;;;;;;;8.10;4.03;;;12.80;36.90;;;;;;5010210;28;20471;-67
2023/07/27 04:44:15;;;;;;;6.90;3.63;;;12.80;36.70;;;;;;5003151;28;20488;-67
2023/07/27 04:46:42;;;;;;;5.93;2.90;;;12.80;36.60;;;;;;5004557;28;20474;-67
2023/07/27 04:49:08;;;;;;;6.50;3.10;;;12.80;36.40;;;;;;5007161;28;20476;-67
2023/07/27 04:51:36;;;;;;;7.07;3.60;;;12.90;36.30;;;;;;5010302;28;20967;-67
2023/07/27 04:54:04;;;;;;;7.37;3.63;;;13.00;36.10;;;;;;5009331;28;20483;-67
2023/07/27 04:56:31;;;;;;;5.83;3.50;;;13.00;36.00;;;;;;5009326;28;20578;-67
2023/07/27 04:58:57;;;;;;;5.77;3.30;;;13.00;36.00;;;;;;5008199;28;20467;-67
2023/07/27 05:01:24;;;;;;;7.07;3.00;;;13.00;36.00;;;;;;5008809;28;20546;-67
2023/07/27 05:03:52;;;;;;;7.30;2.87;;;13.10;36.00;;;;;;5006147;28;20480;-67
2023/07/27 05:06:18;;;;;;;5.60;3.00;;;13.10;35.90;;;;;;5005087;28;20495;-66
2023/07/27 05:08:45;;;;;;;5.40;3.17;;;13.20;35.80;;;;;;5008171;28;20460;-66
2023/07/27 05:11:13;;;;;;;5.80;3.50;;;13.20;35.50;;;;;;5008758;28;20463;-66
2023/07/27 05:13:40;;;;;;;5.50;3.43;;;13.30;35.50;;;;;;5007108;28;20483;-66
2023/07/27 05:16:07;;;;;;;7.80;3.00;;;13.30;35.20;;;;;;5005421;28;20483;-66
2023/07/27 05:18:33;;;;;;;7.17;3.20;;;13.40;34.80;;;;;;5003735;28;20464;-66
2023/07/27 05:21:00;;;;;;;5.63;3.30;;;13.40;34.10;;;;;;5008362;28;20817;-67
2023/07/27 05:23:27;;;;;;;6.43;2.70;;;13.50;34.10;;;;;;5007678;28;20842;-66
2023/07/27 05:25:54;;;;;;;6.30;2.70;;;13.60;33.80;;;;;;5009010;28;20953;-66
2023/07/27 05:28:22;;;;;;;5.73;2.53;;;13.70;33.60;;;;;;5008709;28;20460;-67
2023/07/27 05:30:49;;;;;;;5.20;2.70;;;13.90;32.90;;;;;;5005869;28;20479;-66
2023/07/27 05:33:15;;;;;;;8.07;3.00;;;14.00;32.80;;;;;;5003023;28;21185;-66
2023/07/27 05:35:47;;;;;;;6.17;3.10;;;14.10;32.70;;;;;;5005841;28;20484;-66
2023/07/27 05:38:13;;;;;;;5.87;2.60;;;14.20;32.20;;;;;;5008491;28;20471;-66
2023/07/27 05:40:40;;;;;;;5.43;2.57;;;14.30;32.10;;;;;;5006543;28;20467;-67
2023/07/27 05:43:07;;;;;;;5.10;2.77;;;14.50;31.60;;;;;;5008464;28;20460;-67
2023/07/27 05:45:36;;;;;;;5.30;2.60;;;14.60;31.20;;;;;;5008577;28;20512;-66
2023/07/27 05:48:04;;;;;;;5.50;2.30;;;14.80;30.70;;;;;;5007571;28;20466;-67
2023/07/27 05:50:30;;;;;;;5.47;2.43;;;15.00;30.20;;;;;;5008112;28;20462;-67
2023/07/27 05:52:57;;;;;;;7.67;3.30;;;15.10;29.40;;;;;;5008188;28;20467;-66
2023/07/27 05:55:24;;;;;;;6.07;2.60;;;15.20;28.90;;;;;;5007823;28;20980;-67
2023/07/27 05:57:50;;;;;;;5.53;2.57;;;15.40;28.40;;;;;;5008931;28;20467;-67
2023/07/27 06:00:18;;;;;;;6.27;2.80;;;15.60;27.20;;;;;;5007278;28;20470;-67
2023/07/27 06:02:46;;;;;;;4.77;2.57;;;15.70;27.30;;;;;;5008243;28;20460;-67
2023/07/27 06:05:13;;;;;;;5.17;2.83;;;15.80;25.30;;;;;;5007104;28;20857;-68
2023/07/27 06:07:40;;;;;;;5.40;2.73;;;15.90;25.40;;;;;;5003845;28;20494;-66
2023/07/27 06:10:07;;;;;;;7.00;2.93;;;16.10;24.70;;;;;;5008861;28;20466;-67
2023/07/27 06:12:34;;;;;;;6.10;2.67;;;16.30;24.30;;;;;;5008187;28;20463;-67
2023/07/27 06:15:01;;;;;;;7.53;2.53;;;16.50;23.80;;;;;;5008951;28;20483;-67
2023/07/27 06:17:28;;;;;;;6.33;2.77;;;16.70;22.90;;;;;;5007475;28;20855;-67
2023/07/27 06:19:56;;;;;;;6.10;2.30;;;17.00;22.00;;;;;;5008337;28;21032;-67
2023/07/27 06:22:22;;;;;;;4.40;2.20;;;17.40;20.70;;;;;;5003443;28;20469;-67
2023/07/27 06:24:49;;;;;;;5.83;2.53;;;17.70;19.50;;;;;;5007126;28;20847;-68
2023/07/27 06:27:16;;;;;;;7.03;2.20;;;17.90;19.30;;;;;;5003491;28;20455;-67
2023/07/27 06:29:43;;;;;;;9.30;2.70;;;18.00;19.00;;;;;;5008337;28;20471;-68
2023/07/27 06:32:10;;;;;;;4.33;2.33;;;18.00;18.20;;;;;;5007152;28;20475;-67
2023/07/27 06:34:36;;;;;;;7.23;2.63;;;18.00;18.30;;;;;;5007735;28;20476;-68
2023/07/27 06:37:05;;;;;;;5.40;2.80;;;18.00;18.50;;;;;;5007531;28;21266;-67
2023/07/27 06:39:32;;;;;;;4.53;2.13;;;17.90;18.50;;;;;;5006760;28;20564;-67
2023/07/27 06:41:59;;;;;;;8.90;3.53;;;17.80;18.50;;;;;;5008447;28;20826;-67
2023/07/27 06:44:25;;;;;;;5.03;2.53;;;17.60;18.70;;;;;;5007689;28;20479;-67
2023/07/27 06:46:52;;;;;;;7.33;2.90;;;17.50;19.00;;;;;;5011942;28;20475;-67
2023/07/27 06:49:19;;;;;;;5.20;3.00;;;17.40;19.50;;;;;;5011931;28;20975;-67
2023/07/27 06:51:46;;;;;;;5.60;2.67;;;17.30;19.90;;;;;;5009013;28;20928;-67
2023/07/27 06:54:14;;;;;;;5.73;2.83;;;17.30;20.00;;;;;;5012147;28;20480;-67
2023/07/27 06:56:40;;;;;;;5.83;2.70;;;17.30;20.00;;;;;;5006637;28;20483;-67
2023/07/27 06:59:07;;;;;;;5.90;3.20;;;17.30;20.10;;;;;;5011536;28;20464;-66
2023/07/27 07:01:34;;;;;;;5.33;2.80;;;17.40;20.30;;;;;;5011144;28;20472;-68
2023/07/27 07:04:01;;;;;;;5.87;2.93;;;17.40;20.40;;;;;;5010319;28;20486;-67
2023/07/27 07:06:27;;;;;;;6.50;2.37;;;17.40;20.40;;;;;;5008539;28;20471;-67
2023/07/27 07:08:54;;;;;;;5.87;3.20;;;17.50;20.60;;;;;;5011413;28;20459;-67
2023/07/27 07:11:22;;;;;;;5.67;2.70;;;17.60;20.50;;;;;;5011531;28;20463;-67
2023/07/27 07:13:49;;;;;;;4.83;2.87;;;17.60;20.30;;;;;;5008096;28;20487;-67
2023/07/27 07:16:18;;;;;;;6.73;3.30;;;17.70;20.00;;;;;;5010858;28;20483;-67
2023/07/27 07:18:44;;;;;;;5.33;3.03;;;17.70;19.90;;;;;;5009790;28;20463;-68
2023/07/27 07:21:11;;;;;;;6.33;3.20;;;17.70;19.90;;;;;;5011444;28;20464;-67
2023/07/27 07:23:38;;;;;;;5.73;2.70;;;17.70;19.90;;;;;;5008578;28;20582;-68
2023/07/27 07:26:04;;;;;;;5.63;2.67;;;17.80;19.50;;;;;;5011626;28;20466;-67
2023/07/27 07:28:32;;;;;;;5.47;2.90;;;17.90;19.50;;;;;;5010859;28;20471;-67
2023/07/27 07:30:59;;;;;;;5.70;2.80;;;18.20;19.40;;;;;;5008321;28;20470;-67
2023/07/27 07:33:26;;;;;;;7.70;2.70;;;19.00;18.80;;;;;;5009978;28;20476;-68
2023/07/27 07:35:52;;;;;;;6.10;2.80;;;20.00;15.40;;;;;;5011530;28;20877;-67
2023/07/27 07:38:19;;;;;;;6.63;2.53;;;21.10;13.80;;;;;;5010179;28;20487;-67
2023/07/27 07:40:47;;;;;;;7.70;2.60;;;22.10;11.20;;;;;;5011104;28;20471;-68
2023/07/27 07:43:13;;;;;;;5.73;2.50;;;22.10;9.90;;;;;;5010986;28;20843;-68
2023/07/27 07:45:42;;;;;;;4.97;2.60;;;21.90;10.00;;;;;;5010598;28;20462;-67
2023/07/27 07:48:08;;;;;;;4.73;2.47;;;21.50;10.40;;;;;;5012940;28;20514;-68
2023/07/27 07:50:37;;;;;;;5.30;2.90;;;21.30;11.20;;;;;;5034230;28;20452;-68
2023/07/27 07:53:05;;;;;;;4.50;2.27;;;21.00;11.10;;;;;;5036687;28;20436;-67
2023/07/27 07:55:35;;;;;;;6.73;2.40;;;20.70;11.90;;;;;;5013780;28;20468;-68
2023/07/27 07:58:02;;;;;;;5.70;2.93;;;20.40;12.70;;;;;;5008949;28;20500;-67
2023/07/27 08:00:28;;;;;;;5.67;2.60;;;20.20;12.90;;;;;;5009602;28;21038;-67
2023/07/27 08:02:56;;;;;;;4.97;2.67;;;20.00;13.60;;;;;;5010797;28;21007;-67
2023/07/27 08:05:24;;;;;;;5.47;2.63;;;19.80;14.30;;;;;;5008024;28;20999;-68
2023/07/27 08:07:51;;;;;;;5.20;2.50;;;19.60;14.90;;;;;;5010324;28;20470;-67
2023/07/27 08:10:18;;;;;;;7.90;2.30;;;19.50;15.30;;;;;;5010492;28;20458;-68
2023/07/27 08:12:45;;;;;;;6.63;2.77;;;19.40;15.30;;;;;;5010652;28;20456;-67
2023/07/27 08:15:12;;;;;;;7.60;4.03;;;19.30;15.90;;;;;;5010921;28;20484;-67
2023/07/27 08:17:39;;;;;;;4.90;2.50;;;19.30;16.30;;;;;;5010155;28;21023;-67
2023/07/27 08:20:09;;;;;;;4.70;2.30;;;19.30;16.20;;;;;;5009118;28;20456;-67
2023/07/27 08:22:37;;;;;;;6.50;2.87;;;19.20;16.40;;;;;;5010288;28;20460;-67
2023/07/27 08:25:05;;;;;;;5.27;2.60;;;19.20;16.30;;;;;;5008195;28;20814;-67
2023/07/27 08:27:34;;;;;;;9.20;2.47;;;19.20;16.30;;;;;;5009577;28;20455;-67
2023/07/27 08:30:01;;;;;;;8.50;3.60;;;19.20;16.30;;;;;;5008947;28;20486;-67
2023/07/27 08:32:27;;;;;;;5.43;2.37;;;19.20;16.40;;;;;;5008871;28;20479;-66
2023/07/27 08:34:54;;;;;;;6.00;3.20;;;19.20;16.70;;;;;;5007582;28;20956;-66
2023/07/27 08:37:22;;;;;;;6.40;3.10;;;19.30;16.80;;;;;;5009454;28;20480;-67
2023/07/27 08:39:50;;;;;;;5.43;2.80;;;19.30;16.60;;;;;;5009895;28;20978;-67
2023/07/27 08:42:17;;;;;;;5.27;2.57;;;19.30;16.70;;;;;;5009954;28;20464;-67
2023/07/27 08:44:44;;;;;;;6.57;2.57;;;19.30;16.40;;;;;;5009658;28;20475;-67
2023/07/27 08:47:12;;;;;;;5.60;2.63;;;19.40;16.30;;;;;;5009807;28;20448;-67
2023/07/27 08:49:39;;;;;;;4.70;2.20;;;19.40;16.20;;;;;;5008171;28;20475;-67
2023/07/27 08:52:08;;;;;;;6.20;2.70;;;19.50;16.10;;;;;;5009641;28;20478;-67
2023/07/27 08:54:36;;;;;;;5.10;2.33;;;19.60;16.20;;;;;;5007555;28;20522;-66
2023/07/27 08:57:03;;;;;;;5.40;2.20;;;19.80;15.80;;;;;;5010963;28;20483;-67
2023/07/27 08:59:30;;;;;;;5.20;2.77;;;20.10;15.50;;;;;;5009751;28;20844;-67
2023/07/27 09:01:57;;;;;;;5.47;2.20;;;20.30;14.80;;;;;;5007069;28;20468;-67
2023/07/27 09:04:23;;;;;;;4.90;2.60;;;20.30;14.20;;;;;;5003514;28;20488;-67
2023/07/27 09:06:50;;;;;;;4.70;2.10;;;20.40;13.50;;;;;;5006572;28;20491;-68
2023/07/27 09:09:18;;;;;;;4.90;1.90;;;20.40;13.70;;;;;;5008611;28;20459;-68
2023/07/27 09:11:47;;;;;;;5.97;2.40;;;20.50;13.80;;;;;;5009726;28;20468;-67
2023/07/27 09:14:13;;;;;;;4.23;2.23;;;20.50;13.40;;;;;;5007624;28;20487;-67
2023/07/27 09:16:40;;;;;;;5.23;2.20;;;20.60;12.30;;;;;;5008896;28;20484;-68
2023/07/27 09:19:07;;;;;;;6.47;2.50;;;20.50;12.20;;;;;;5009663;28;20452;-69
2023/07/27 09:21:41;;;;;;;4.73;2.53;;;20.50;11.70;;;;;;5005865;28;20497;-68
2023/07/27 09:24:11;;;;;;;6.07;2.00;;;20.40;12.00;;;;;;5009333;28;20567;-67
2023/07/27 09:26:46;;;;;;;6.30;2.03;;;20.40;12.00;;;;;;5005499;28;20535;-67
2023/07/27 09:29:13;;;;;;;6.70;2.30;;;20.50;12.10;;;;;;5006806;28;20466;-67
2023/07/27 09:31:47;;;;;;;4.90;2.60;;;20.50;11.60;;;;;;5006739;28;20464;-67
2023/07/27 09:34:14;;;;;;;4.97;2.27;;;20.60;11.60;;;;;;5006789;28;20502;-67
2023/07/27 09:36:41;;;;;;;4.50;2.30;;;20.60;11.40;;;;;;5005715;28;20487;-66
2023/07/27 09:39:09;;;;;;;5.27;2.80;;;20.60;11.10;;;;;;5008993;28;20456;-67
2023/07/27 09:41:35;;;;;;;4.30;2.07;;;20.50;10.90;;;;;;5008424;28;20452;-67
2023/07/27 09:44:04;;;;;;;3.80;1.83;;;20.50;11.30;;;;;;5008918;28;20475;-67
2023/07/27 09:46:32;;;;;;;4.23;1.83;;;20.50;11.50;;;;;;5008684;28;20459;-68
2023/07/27 09:48:59;;;;;;;5.60;2.17;;;20.50;12.00;;;;;;5008493;28;20464;-67
2023/07/27 09:51:27;;;;;;;4.73;2.40;;;20.50;12.30;;;;;;5006767;28;20468;-67
2023/07/27 09:53:55;;;;;;;8.00;2.60;;;20.60;12.00;;;;;;5008330;28;20479;-67
2023/07/27 09:56:22;;;;;;;4.90;2.27;;;20.60;11.70;;;;;;5004702;28;20484;-67
2023/07/27 09:58:49;;;;;;;4.40;2.10;;;20.70;11.30;;;;;;5008307;28;20515;-67
2023/07/27 10:01:19;;;;;;;9.50;2.73;;;20.90;11.20;;;;;;5003907;28;20468;-67
2023/07/27 10:03:46;;;;;;;10.80;2.60;;;21.10;10.80;;;;;;5006184;28;20512;-67
2023/07/27 10:06:15;;;;;;;4.80;2.10;;;21.30;9.80;;;;;;5006163;28;20459;-67
2023/07/27 10:08:42;;;;;;;5.03;2.53;;;21.40;9.50;;;;;;5008271;28;20459;-67
2023/07/27 10:11:10;;;;;;;5.53;2.20;;;21.60;9.70;;;;;;5008577;28;20488;-68
2023/07/27 10:13:39;;;;;;;5.43;2.13;;;21.70;9.70;;;;;;5007279;28;20538;-70
2023/07/27 10:16:09;;;;;;;4.73;2.20;;;21.90;9.40;;;;;;5007123;28;20487;-67
2023/07/27 10:18:42;;;;;;;4.50;2.20;;;22.30;9.50;;;;;;5008741;28;21008;-67
2023/07/27 10:21:23;;;;;;;4.90;2.13;;;22.80;7.80;;;;;;5007645;28;20459;-68
2023/07/27 10:23:57;;;;;;;4.90;2.33;;;23.10;7.20;;;;;;5007623;28;20531;-67
2023/07/27 10:28:54;;;;;;;5.20;2.20;;;23.00;5.30;;;;;;4993208;28;20488;-66
2023/07/27 10:31:24;;;;;;;4.30;2.10;;;22.90;6.20;;;;;;4998092;28;20475;-66
2023/07/27 10:33:57;;;;;;;4.00;1.97;;;22.90;6.70;;;;;;4987725;28;20958;-66
2023/07/27 10:36:24;;;;;;;4.37;1.87;;;22.90;6.70;;;;;;4990560;28;20478;-67
2023/07/27 10:38:52;;;;;;;4.30;2.30;;;23.00;6.50;;;;;;4990801;28;20495;-67
2023/07/27 10:41:21;;;;;;;5.07;2.03;;;23.00;6.50;;;;;;4992526;28;20492;-67
2023/07/27 10:44:16;;;;;;;5.63;2.43;;;23.00;5.00;;;;;;4988216;28;21062;-66
2023/07/27 10:46:47;;;;;;;5.53;2.60;;;22.90;5.40;;;;;;4991410;28;20510;-66
2023/07/27 10:49:16;;;;;;;5.77;2.03;;;22.90;5.60;;;;;;4994607;28;20455;-66
2023/07/27 10:51:45;;;;;;;5.80;2.27;;;22.80;6.00;;;;;;4991273;28;20457;-67
2023/07/27 10:54:11;;;;;;;4.60;2.47;;;22.80;6.10;;;;;;4992848;28;20530;-67
2023/07/27 10:56:38;;;;;;;5.87;1.97;;;22.80;5.40;;;;;;4991726;28;20464;-67
2023/07/27 10:59:05;;;;;;;4.10;1.93;;;22.70;5.80;;;;;;4994483;28;20808;-67
2023/07/27 11:01:34;;;;;;;4.50;1.80;;;22.70;5.40;;;;;;4987839;28;20468;-67
2023/07/27 11:04:01;;;;;;;4.40;1.87;;;22.70;5.20;;;;;;4992898;28;20999;-66
2023/07/27 11:06:30;;;;;;;4.17;1.90;;;22.70;5.10;;;;;;4994894;28;20456;-66
2023/07/27 11:08:57;;;;;;;4.97;2.27;;;22.70;5.20;;;;;;4995932;28;20456;-66
2023/07/27 11:11:26;;;;;;;5.17;1.93;;;22.60;5.40;;;;;;5000639;28;20824;-67
2023/07/27 11:13:52;;;;;;;4.33;1.87;;;22.60;5.40;;;;;;4994965;28;20546;-67
2023/07/27 11:16:19;;;;;;;4.77;2.07;;;22.70;4.70;;;;;;5000068;28;20825;-66
2023/07/27 11:18:46;;;;;;;5.80;2.27;;;22.80;4.80;;;;;;4995620;28;20480;-66
2023/07/27 11:21:13;;;;;;;5.87;2.40;;;23.00;4.80;;;;;;4998203;28;21062;-66
2023/07/27 11:23:44;;;;;;;4.63;2.00;;;23.30;4.40;;;;;;4996445;28;21030;-66
2023/07/27 11:26:11;;;;;;;6.80;2.37;;;23.40;3.70;;;;;;5001476;28;20467;-66
2023/07/27 11:28:39;;;;;;;5.40;2.30;;;23.60;3.10;;;;;;4997490;28;20460;-66
2023/07/27 11:31:06;;;;;;;5.63;2.57;;;23.70;3.50;;;;;;4999732;28;20468;-66
2023/07/27 11:33:33;;;;;;;6.20;2.60;;;23.90;3.50;;;;;;4996709;28;20876;-66
2023/07/27 11:36:00;;;;;;;5.00;2.00;;;24.00;3.40;;;;;;4995584;28;20467;-66
2023/07/27 11:38:27;;;;;;;8.13;2.40;;;24.00;3.10;;;;;;4994295;28;20579;-66
2023/07/27 11:40:57;;;;;;;4.67;2.37;;;24.00;2.70;;;;;;4997889;28;20518;-66
2023/07/27 11:43:24;;;;;;;10.37;2.10;;;23.90;2.60;;;;;;4995231;28;20949;-66
2023/07/27 11:45:55;;;;;;;6.07;2.03;;;24.00;3.40;;;;;;4997128;28;20461;-68
2023/07/27 11:48:26;;;;;;;9.33;3.10;;;24.00;2.90;;;;;;4994805;28;20472;-68
2023/07/27 11:50:54;;;;;;;6.60;2.50;;;24.00;4.00;;;;;;4990162;28;20994;-68
2023/07/27 11:53:25;;;;;;;5.30;1.83;;;23.90;3.90;;;;;;4990827;28;20457;-68
2023/07/27 11:55:51;;;;;;;5.27;2.20;;;23.70;4.20;;;;;;4992281;28;20499;-68
2023/07/27 11:58:20;;;;;;;4.60;1.70;;;23.60;4.60;;;;;;4996351;28;20484;-68
2023/07/27 12:00:48;;;;;;;5.03;2.07;;;23.40;4.50;;;;;;4998385;28;20468;-68
2023/07/27 12:03:15;;;;;;;4.07;1.90;;;23.20;4.70;;;;;;5002691;28;20953;-68
2023/07/27 12:05:42;;;;;;;4.40;2.43;;;23.00;5.10;;;;;;5006677;28;20468;-68
2023/07/27 12:08:09;;;;;;;5.20;1.90;;;22.80;5.60;;;;;;5005851;28;20895;-68
2023/07/27 12:10:36;;;;;;;4.70;2.23;;;22.60;5.50;;;;;;5003731;28;20461;-68
2023/07/27 12:13:05;;;;;;;4.57;2.23;;;22.50;6.20;;;;;;5005554;28;20973;-68
2023/07/27 12:15:34;;;;;;;4.70;2.00;;;22.30;6.60;;;;;;5007289;28;20488;-68
2023/07/27 12:18:02;;;;;;;7.67;1.90;;;22.20;6.90;;;;;;5004146;28;20598;-68
2023/07/27 12:20:30;;;;;;;5.33;2.00;;;22.00;7.00;;;;;;5007069;28;20471;-68
2023/07/27 12:22:57;;;;;;;5.30;2.07;;;21.80;7.30;;;;;;5007464;28;20475;-68
2023/07/27 12:25:26;;;;;;;6.77;2.53;;;21.70;7.70;;;;;;5006555;28;20498;-68
2023/07/27 12:27:53;;;;;;;5.03;2.33;;;21.60;8.10;;;;;;5007158;28;20465;-68
2023/07/27 12:30:20;;;;;;;11.33;2.53;;;21.50;8.50;;;;;;5006190;28;20495;-68
2023/07/27 12:32:49;;;;;;;5.67;3.00;;;21.40;8.50;;;;;;5005369;28;20504;-68
2023/07/27 12:35:16;;;;;;;6.70;2.50;;;21.40;9.20;;;;;;5006837;28;20480;-68
2023/07/27 12:37:43;;;;;;;5.00;2.50;;;21.40;9.60;;;;;;5006818;28;20484;-68
2023/07/27 12:40:11;;;;;;;7.03;2.30;;;21.40;10.00;;;;;;5009060;28;20968;-68
2023/07/27 12:42:38;;;;;;;6.33;2.47;;;21.50;10.40;;;;;;5007989;28;20918;-68
2023/07/27 12:45:06;;;;;;;4.93;2.40;;;21.60;10.30;;;;;;5006040;28;20488;-68
2023/07/27 12:47:33;;;;;;;5.17;2.33;;;21.70;10.00;;;;;;5001680;28;20456;-68
2023/07/27 12:50:01;;;;;;;5.00;2.17;;;21.90;9.90;;;;;;5007337;28;20482;-68
2023/07/27 12:52:28;;;;;;;6.30;2.83;;;22.00;10.10;;;;;;5006958;28;20479;-68
2023/07/27 12:54:55;;;;;;;5.73;2.30;;;22.20;10.30;;;;;;5006472;28;20490;-68